Time,TemperatureF,DewpointF,PressureIn,WindDirection,WindDirectionDegrees,WindSpeedMPH,WindSpeedGustMPH,Humidity,HourlyPrecipIn,Conditions,Clouds,dailyrainin,SoftwareType,DateUTC
2014-10-21 00:00:00,81.1,77.2,30.03,SE,135,4.0,4.9,88,0.00,,---,0.00,VWS V14.01,2014-10-21 05:00:00,
2014-10-21 00:05:00,81.1,77.2,30.03,East,90,1.3,1.3,88,0.00,,---,0.00,VWS V14.01,2014-10-21 05:05:00,
2014-10-21 00:10:00,80.8,71.3,30.03,SE,135,2.9,4.7,73,0.00,,---,0.00,VWS V14.01,2014-10-21 05:10:00,
2014-10-21 00:15:00,80.4,69.8,30.03,East,90,2.9,4.0,70,0.00,,---,0.00,VWS V14.01,2014-10-21 05:15:00,
2014-10-21 00:20:00,79.7,70.3,30.03,East,90,3.6,3.8,73,0.00,,---,0.00,VWS V14.01,2014-10-21 05:20:00,
2014-10-21 00:25:00,79.3,70.7,30.03,SE,135,1.1,2.5,75,0.00,,---,0.00,VWS V14.01,2014-10-21 05:25:00,
2014-10-21 00:30:00,79.0,70.4,30.03,SE,135,2.5,2.5,75,0.00,,---,0.00,VWS V14.01,2014-10-21 05:30:00,
2014-10-21 00:35:00,79.0,70.8,30.03,SE,135,1.6,2.5,76,0.00,,---,0.00,VWS V14.01,2014-10-21 05:35:00,
2014-10-21 00:40:00,79.0,71.5,30.03,SE,135,2.0,2.2,78,0.00,,---,0.00,VWS V14.01,2014-10-21 05:40:00,
2014-10-21 00:45:00,79.0,72.7,30.03,SE,135,2.9,2.9,81,0.00,,---,0.00,VWS V14.01,2014-10-21 05:45:00,
2014-10-21 00:50:00,79.2,73.2,30.03,SE,135,2.5,2.9,82,0.00,,---,0.00,VWS V14.01,2014-10-21 05:50:00,
2014-10-21 00:55:00,79.2,73.6,30.03,SE,135,3.4,4.9,83,0.00,,---,0.00,VWS V14.01,2014-10-21 05:55:00,
2014-10-21 01:00:00,79.2,73.9,30.03,SE,135,1.1,1.6,84,0.00,,---,0.00,VWS V14.01,2014-10-21 06:00:00,
2014-10-21 01:05:00,79.3,74.4,30.03,SE,135,0.9,1.3,85,0.00,,---,0.00,VWS V14.01,2014-10-21 06:05:00,
2014-10-21 01:10:00,79.5,75.3,30.03,South,180,0.9,2.5,87,0.00,,---,0.00,VWS V14.01,2014-10-21 06:10:00,
2014-10-21 01:15:00,79.7,76.5,30.03,East,90,3.8,3.8,90,0.00,,---,0.00,VWS V14.01,2014-10-21 06:15:00,
2014-10-21 01:20:00,79.9,77.0,30.03,South,180,3.1,3.1,91,0.00,,---,0.00,VWS V14.01,2014-10-21 06:20:00,
2014-10-21 01:25:00,79.9,77.0,30.00,South,180,3.8,3.8,91,0.00,,---,0.00,VWS V14.01,2014-10-21 06:25:00,
2014-10-21 01:30:00,80.1,77.2,30.00,SE,135,1.6,3.4,91,0.00,,---,0.00,VWS V14.01,2014-10-21 06:30:00,
2014-10-21 01:35:00,80.2,77.4,30.00,SE,135,1.6,2.7,91,0.00,,---,0.00,VWS V14.01,2014-10-21 06:35:00,
2014-10-21 01:40:00,80.4,77.6,30.00,SE,135,3.4,3.4,91,0.00,,---,0.00,VWS V14.01,2014-10-21 06:40:00,
2014-10-21 01:45:00,80.4,77.2,30.00,SE,135,3.6,3.6,90,0.00,,---,0.00,VWS V14.01,2014-10-21 06:45:00,
2014-10-21 01:50:00,80.6,77.1,30.00,North,0,0.0,2.7,89,0.00,,---,0.00,VWS V14.01,2014-10-21 06:50:00,
2014-10-21 01:55:00,80.6,77.1,30.00,South,180,2.5,2.5,89,0.00,,---,0.00,VWS V14.01,2014-10-21 06:55:00,
2014-10-21 02:00:00,80.6,77.1,30.00,SSE,158,3.1,3.1,89,0.00,,---,0.00,VWS V14.01,2014-10-21 07:00:00,
2014-10-21 02:05:00,80.6,77.1,30.00,SE,135,3.4,3.4,89,0.00,,---,0.00,VWS V14.01,2014-10-21 07:05:00,
2014-10-21 02:10:00,80.6,77.1,29.97,SE,135,2.0,3.1,89,0.00,,---,0.00,VWS V14.01,2014-10-21 07:10:00,
2014-10-21 02:15:00,80.6,77.1,29.97,SE,135,2.0,3.6,89,0.00,,---,0.00,VWS V14.01,2014-10-21 07:15:00,
2014-10-21 02:20:00,80.6,77.1,29.97,SE,135,0.0,2.7,89,0.00,,---,0.00,VWS V14.01,2014-10-21 07:20:00,